createdAt,value
2024-02-02T00:00:06.299Z,3.90
2024-02-02T00:02:38.287Z,3.70
2024-02-02T00:05:06.317Z,3.30
2024-02-02T00:07:33.572Z,3.10
2024-02-02T00:10:00.728Z,3.10
2024-02-02T00:12:28.344Z,3.63
2024-02-02T00:14:55.408Z,3.88
2024-02-02T00:17:22.461Z,3.80
2024-02-02T00:19:49.354Z,3.38
2024-02-02T00:22:16.155Z,3.03
2024-02-02T00:24:42.855Z,3.38
2024-02-02T00:27:09.528Z,3.30
2024-02-02T00:29:36.403Z,2.72
2024-02-02T00:32:03.458Z,3.55
2024-02-02T00:34:30.304Z,3.13
2024-02-02T00:36:57.043Z,3.38
2024-02-02T00:39:24.038Z,4.03
2024-02-02T00:41:50.845Z,3.78
2024-02-02T00:44:17.588Z,3.33
2024-02-02T00:46:44.273Z,3.55
2024-02-02T00:49:11.052Z,3.38
2024-02-02T00:51:38.361Z,2.95
2024-02-02T00:54:05.441Z,2.90
2024-02-02T00:56:32.261Z,3.70
2024-02-02T00:58:59.007Z,3.42
2024-02-02T01:01:25.852Z,3.97
2024-02-02T01:03:52.587Z,4.30
2024-02-02T01:06:19.590Z,3.63
2024-02-02T01:08:46.395Z,3.13
2024-02-02T01:11:13.272Z,3.83
2024-02-02T01:13:40.055Z,3.30
2024-02-02T01:16:07.193Z,3.97
2024-02-02T01:18:34.090Z,3.80
2024-02-02T01:21:02.065Z,4.07
2024-02-02T01:23:28.772Z,3.67
2024-02-02T01:25:55.518Z,4.03
2024-02-02T01:28:22.205Z,3.90
2024-02-02T01:30:49.093Z,3.58
2024-02-02T01:33:16.005Z,4.22
2024-02-02T01:35:43.027Z,4.18
2024-02-02T01:38:11.268Z,4.05
2024-02-02T01:40:37.982Z,3.60
2024-02-02T01:43:05.167Z,3.35
2024-02-02T01:45:31.891Z,3.40
2024-02-02T01:47:58.793Z,4.25
2024-02-02T01:50:25.555Z,4.10
2024-02-02T01:52:52.662Z,3.78
2024-02-02T01:55:19.448Z,3.33
2024-02-02T01:57:46.321Z,4.50
2024-02-02T02:00:14.802Z,3.78
2024-02-02T02:02:41.523Z,4.45
2024-02-02T02:05:09.146Z,4.28
2024-02-02T02:07:35.965Z,3.95
2024-02-02T02:10:04.613Z,3.60
2024-02-02T02:12:31.451Z,3.75
2024-02-02T02:14:58.314Z,3.08
2024-02-02T02:17:25.023Z,3.67
2024-02-02T02:19:51.906Z,3.03
2024-02-02T02:22:18.794Z,3.65
2024-02-02T02:24:45.510Z,3.13
2024-02-02T02:27:12.463Z,3.20
2024-02-02T02:29:39.178Z,3.22
2024-02-02T02:32:06.433Z,4.13
2024-02-02T02:34:33.288Z,3.72
2024-02-02T02:37:00.237Z,3.72
2024-02-02T02:39:26.983Z,3.08
2024-02-02T02:41:53.803Z,3.45
2024-02-02T02:44:20.590Z,3.05
2024-02-02T02:46:48.535Z,3.22
2024-02-02T02:49:15.837Z,3.00
2024-02-02T02:51:42.667Z,3.22
2024-02-02T02:54:09.402Z,2.67
2024-02-02T02:56:36.464Z,3.45
2024-02-02T02:59:03.173Z,3.42
2024-02-02T03:01:29.999Z,3.13
2024-02-02T03:03:56.752Z,2.90
2024-02-02T03:06:23.585Z,2.75
2024-02-02T03:08:50.369Z,2.53
2024-02-02T03:11:17.234Z,3.13
2024-02-02T03:13:44.034Z,2.53
2024-02-02T03:16:10.813Z,3.10
2024-02-02T03:18:37.627Z,3.30
2024-02-02T03:21:04.964Z,3.20
2024-02-02T03:23:31.708Z,3.22
2024-02-02T03:25:58.391Z,3.00
2024-02-02T03:28:25.077Z,2.95
2024-02-02T03:30:52.108Z,2.72
2024-02-02T03:33:18.989Z,3.80
2024-02-02T03:35:45.810Z,4.63
2024-02-02T03:38:12.583Z,4.18
2024-02-02T03:40:39.254Z,3.60
2024-02-02T03:43:06.024Z,3.20
2024-02-02T03:45:33.383Z,3.28
2024-02-02T03:48:01.538Z,3.00
2024-02-02T03:50:28.479Z,2.70
2024-02-02T03:52:56.641Z,2.25
2024-02-02T03:55:23.320Z,2.67
2024-02-02T03:57:50.058Z,3.10
2024-02-02T04:00:17.414Z,2.42
2024-02-02T04:02:48.177Z,2.53
2024-02-02T04:05:17.989Z,2.45
2024-02-02T04:07:44.731Z,2.92
2024-02-02T04:10:11.637Z,3.38
2024-02-02T04:12:41.625Z,2.78
2024-02-02T04:15:09.024Z,2.63
2024-02-02T04:17:35.799Z,2.90
2024-02-02T04:20:02.666Z,2.58
2024-02-02T04:22:29.666Z,3.17
2024-02-02T04:24:56.420Z,2.40
2024-02-02T04:27:23.153Z,2.35
2024-02-02T04:29:49.988Z,2.30
2024-02-02T04:32:16.887Z,2.55
2024-02-02T04:34:43.730Z,2.42
2024-02-02T04:37:10.514Z,2.53
2024-02-02T04:39:37.313Z,3.10
2024-02-02T04:42:06.063Z,2.67
2024-02-02T04:44:32.784Z,2.17
2024-02-02T04:46:59.565Z,3.58
2024-02-02T04:49:26.362Z,2.78
2024-02-02T04:51:53.160Z,2.42
2024-02-02T04:54:19.884Z,2.42
2024-02-02T04:56:46.584Z,2.30
2024-02-02T04:59:13.311Z,2.45
2024-02-02T05:01:40.734Z,2.20
2024-02-02T05:04:07.483Z,2.65
2024-02-02T05:06:34.458Z,2.30
2024-02-02T05:09:01.300Z,2.47
2024-02-02T05:11:27.991Z,2.38
2024-02-02T05:13:55.799Z,1.85
2024-02-02T05:16:22.629Z,1.98
2024-02-02T05:18:51.626Z,2.70
2024-02-02T05:21:19.172Z,2.17
2024-02-02T05:23:49.540Z,2.85
2024-02-02T05:26:18.236Z,2.15
2024-02-02T05:28:45.001Z,2.20
2024-02-02T05:31:11.684Z,2.40
2024-02-02T05:33:38.517Z,2.58
2024-02-02T05:36:05.762Z,2.45
2024-02-02T05:38:32.564Z,2.80
2024-02-02T05:41:00.413Z,2.40
2024-02-02T05:43:27.082Z,4.72
2024-02-02T05:45:54.083Z,2.38
2024-02-02T05:48:21.176Z,2.13
2024-02-02T05:50:48.364Z,2.22
2024-02-02T05:53:16.768Z,2.47
2024-02-02T05:55:47.632Z,2.85
2024-02-02T05:58:14.622Z,3.42
2024-02-02T06:00:41.637Z,2.65
2024-02-02T06:03:08.598Z,3.00
2024-02-02T06:05:35.390Z,4.15
2024-02-02T06:08:02.741Z,4.13
2024-02-02T06:10:29.607Z,2.95
2024-02-02T06:12:56.303Z,3.03
2024-02-02T06:15:22.977Z,2.97
2024-02-02T06:17:52.019Z,3.05
2024-02-02T06:20:20.259Z,2.05
2024-02-02T06:22:46.964Z,2.60
2024-02-02T06:25:13.704Z,1.85
2024-02-02T06:27:40.550Z,2.40
2024-02-02T06:30:09.025Z,2.17
2024-02-02T06:32:40.641Z,2.40
2024-02-02T06:35:07.919Z,2.30
2024-02-02T06:37:34.661Z,2.50
2024-02-02T06:40:04.917Z,4.03
2024-02-02T06:42:32.425Z,3.22
2024-02-02T06:44:59.265Z,3.13
2024-02-02T06:47:26.216Z,3.03
2024-02-02T06:49:53.116Z,3.30
2024-02-02T06:52:20.823Z,3.47
2024-02-02T06:54:47.527Z,3.60
2024-02-02T06:57:14.324Z,3.03
2024-02-02T06:59:44.733Z,3.03
2024-02-02T07:02:22.762Z,4.20
2024-02-02T07:04:49.737Z,3.15
2024-02-02T07:07:16.792Z,3.30
2024-02-02T07:09:53.041Z,3.47
2024-02-02T07:13:00.563Z,3.20
2024-02-02T07:15:32.541Z,2.97
2024-02-02T07:17:59.918Z,3.33
2024-02-02T07:20:26.865Z,3.22
2024-02-02T07:22:57.689Z,3.75
2024-02-02T07:25:25.855Z,3.78
2024-02-02T07:27:56.226Z,3.45
2024-02-02T07:30:32.017Z,3.40
2024-02-02T07:33:00.256Z,3.15
2024-02-02T07:35:36.834Z,3.80
2024-02-02T07:38:07.952Z,2.78
2024-02-02T07:41:04.604Z,3.42
2024-02-02T07:43:34.037Z,3.03
2024-02-02T07:46:09.197Z,4.35
2024-02-02T07:48:39.152Z,3.05
2024-02-02T07:51:06.881Z,3.45
2024-02-02T07:53:34.315Z,4.10
2024-02-02T07:56:01.496Z,3.85
2024-02-02T07:58:28.633Z,3.25
2024-02-02T08:00:55.499Z,3.90
2024-02-02T08:03:22.496Z,3.20
2024-02-02T08:05:49.392Z,4.07
2024-02-02T08:08:16.585Z,3.97
2024-02-02T08:10:44.162Z,3.42
2024-02-02T08:13:15.732Z,3.45
2024-02-02T08:15:42.884Z,3.75
2024-02-02T08:18:10.445Z,3.38
2024-02-02T08:20:37.926Z,3.60
2024-02-02T08:23:05.438Z,3.85
2024-02-02T08:25:32.432Z,4.43
2024-02-02T08:27:59.453Z,4.00
2024-02-02T08:30:26.248Z,4.85
2024-02-02T08:32:53.593Z,4.47
2024-02-02T08:35:25.495Z,3.80
2024-02-02T08:37:56.427Z,3.72
2024-02-02T08:40:30.280Z,3.45
2024-02-02T08:42:56.962Z,3.70
2024-02-02T08:45:43.727Z,3.40
2024-02-02T08:48:31.929Z,3.15
2024-02-02T08:50:59.940Z,3.95
2024-02-02T08:53:27.663Z,3.20
2024-02-02T08:56:01.921Z,3.53
2024-02-02T08:58:35.618Z,3.70
2024-02-02T09:01:04.559Z,2.67
2024-02-02T09:03:45.205Z,3.33
2024-02-02T09:06:41.934Z,3.38
2024-02-02T09:09:12.950Z,3.13
2024-02-02T09:11:39.804Z,2.60
2024-02-02T09:14:18.619Z,2.28
2024-02-02T09:16:53.719Z,2.45
2024-02-02T09:19:28.994Z,3.00
2024-02-02T09:22:02.758Z,2.90
2024-02-02T09:24:49.399Z,2.30
2024-02-02T09:27:40.101Z,2.28
2024-02-02T09:30:19.318Z,2.90
2024-02-02T09:32:46.203Z,2.70
2024-02-02T09:35:53.911Z,2.75
2024-02-02T09:38:20.961Z,2.53
2024-02-02T09:41:02.460Z,2.38
2024-02-02T09:44:00.986Z,2.55
2024-02-02T09:46:53.071Z,2.47
2024-02-02T09:50:02.666Z,2.45
2024-02-02T09:52:51.620Z,2.42
2024-02-02T09:56:11.334Z,2.78
2024-02-02T09:58:48.416Z,2.20
2024-02-02T10:01:57.912Z,2.40
2024-02-02T10:05:15.426Z,2.45
2024-02-02T10:08:00.219Z,2.28
2024-02-02T10:10:57.245Z,2.38
2024-02-02T10:14:32.109Z,2.55
2024-02-02T10:17:21.493Z,2.80
2024-02-02T10:20:45.281Z,2.20
2024-02-02T10:23:45.503Z,2.55
2024-02-02T10:26:59.411Z,2.10
2024-02-02T10:29:53.917Z,2.80
2024-02-02T10:33:04.528Z,2.30
2024-02-02T10:36:01.232Z,2.65
2024-02-02T10:38:35.078Z,2.55
2024-02-02T10:41:52.341Z,2.53
2024-02-02T10:45:10.981Z,2.90
2024-02-02T10:48:16.734Z,2.83
2024-02-02T10:51:01.258Z,2.72
2024-02-02T10:53:55.859Z,2.92
2024-02-02T10:56:51.592Z,2.38
2024-02-02T10:59:43.372Z,2.30
2024-02-02T11:02:40.852Z,2.20
2024-02-02T11:05:29.862Z,1.77
2024-02-02T11:08:07.366Z,2.40
2024-02-02T11:11:09.575Z,2.30
2024-02-02T11:14:03.150Z,2.00
2024-02-02T11:17:01.737Z,2.45
2024-02-02T11:19:49.632Z,2.85
2024-02-02T11:22:48.050Z,2.22
2024-02-02T11:25:33.316Z,1.98
2024-02-02T11:28:18.353Z,2.67
2024-02-02T11:31:22.074Z,2.63
2024-02-02T11:34:44.496Z,2.28
2024-02-02T11:37:42.438Z,1.92
2024-02-02T11:40:11.497Z,1.98
2024-02-02T11:42:39.949Z,2.28
2024-02-02T11:45:13.551Z,2.15
2024-02-02T11:48:00.711Z,1.88
2024-02-02T11:50:35.911Z,2.05
2024-02-02T11:53:52.006Z,1.80
2024-02-02T11:56:37.100Z,1.98
2024-02-02T11:59:24.635Z,1.98
2024-02-02T12:02:17.765Z,2.10
2024-02-02T12:05:22.419Z,1.70
2024-02-02T12:08:26.318Z,2.00
2024-02-02T12:10:54.283Z,1.83
2024-02-02T12:13:26.378Z,2.00
2024-02-02T12:15:54.003Z,1.95
2024-02-02T12:18:21.480Z,1.92
2024-02-02T12:20:48.375Z,1.65
2024-02-02T12:23:15.136Z,1.90
2024-02-02T12:25:42.161Z,2.03
2024-02-02T12:28:09.493Z,2.17
2024-02-02T12:30:36.248Z,2.25
2024-02-02T12:33:06.384Z,2.40
2024-02-02T12:35:33.276Z,1.83
2024-02-02T12:37:59.977Z,2.00
2024-02-02T12:40:26.848Z,2.72
2024-02-02T12:42:57.292Z,2.13
2024-02-02T12:45:23.979Z,2.30
2024-02-02T12:47:51.195Z,2.58
2024-02-02T12:50:22.074Z,2.15
2024-02-02T12:52:51.837Z,2.33
2024-02-02T12:55:19.795Z,3.50
2024-02-02T12:57:47.052Z,2.30
2024-02-02T13:00:17.575Z,1.88
2024-02-02T13:02:46.516Z,2.20
2024-02-02T13:05:20.507Z,2.08
2024-02-02T13:07:49.947Z,1.85
2024-02-02T13:10:38.185Z,1.83
2024-02-02T13:13:20.591Z,1.90
2024-02-02T13:15:47.597Z,2.03
2024-02-02T13:18:20.162Z,3.13
2024-02-02T13:20:50.102Z,1.77
2024-02-02T13:23:29.636Z,2.15
2024-02-02T13:26:05.118Z,2.00
2024-02-02T13:28:41.950Z,2.15
2024-02-02T13:31:16.753Z,2.95
2024-02-02T13:33:56.164Z,2.90
2024-02-02T13:36:23.845Z,2.17
2024-02-02T13:38:56.358Z,1.92
2024-02-02T13:41:23.936Z,1.70
2024-02-02T13:44:07.611Z,2.60
2024-02-02T13:46:45.209Z,2.35
2024-02-02T13:49:25.871Z,2.90
2024-02-02T13:51:53.915Z,2.00
2024-02-02T13:54:22.899Z,1.90
2024-02-02T13:56:52.345Z,2.15
2024-02-02T13:59:20.079Z,2.50
2024-02-02T14:01:47.179Z,1.70
2024-02-02T14:04:25.034Z,2.30
2024-02-02T14:06:52.360Z,1.80
2024-02-02T14:09:23.384Z,2.10
2024-02-02T14:11:51.001Z,1.98
2024-02-02T14:14:25.001Z,2.28
2024-02-02T14:16:51.866Z,2.28
2024-02-02T14:19:20.195Z,2.97
2024-02-02T14:21:46.942Z,2.35
2024-02-02T14:24:17.199Z,2.10
2024-02-02T14:26:51.304Z,2.53
2024-02-02T14:29:19.518Z,2.20
2024-02-02T14:31:47.131Z,1.73
2024-02-02T14:34:14.040Z,2.20
2024-02-02T14:36:41.965Z,3.25
2024-02-02T14:39:14.906Z,3.75
2024-02-02T14:41:41.691Z,2.40
2024-02-02T14:44:10.116Z,2.10
2024-02-02T14:46:40.782Z,2.30
2024-02-02T14:49:09.797Z,2.10
2024-02-02T14:51:37.473Z,2.00
2024-02-02T14:54:06.544Z,2.00
2024-02-02T14:56:34.447Z,1.63
2024-02-02T14:59:13.601Z,2.50
2024-02-02T15:01:41.112Z,2.05
2024-02-02T15:04:09.230Z,2.00
2024-02-02T15:06:38.251Z,2.20
2024-02-02T15:09:09.971Z,1.88
2024-02-02T15:11:37.302Z,2.08
2024-02-02T15:14:04.059Z,2.05
2024-02-02T15:16:38.461Z,2.28
2024-02-02T15:19:05.970Z,2.58
2024-02-02T15:21:33.626Z,2.22
2024-02-02T15:24:00.721Z,1.90
2024-02-02T15:26:27.674Z,1.85
2024-02-02T15:28:54.423Z,2.38
2024-02-02T15:31:21.376Z,2.25
2024-02-02T15:33:48.228Z,2.33
2024-02-02T15:36:15.314Z,1.90
2024-02-02T15:38:59.812Z,2.10
2024-02-02T15:41:29.534Z,2.78
2024-02-02T15:43:56.529Z,1.67
2024-02-02T15:46:24.781Z,1.83
2024-02-02T15:48:52.076Z,1.98
2024-02-02T15:51:19.888Z,1.90
2024-02-02T15:53:47.122Z,1.98
2024-02-02T15:56:18.070Z,2.30
2024-02-02T15:58:45.035Z,2.40
2024-02-02T16:01:13.259Z,2.05
2024-02-02T16:03:41.398Z,2.60
2024-02-02T16:06:10.500Z,3.40
2024-02-02T16:08:38.323Z,2.75
2024-02-02T16:11:05.663Z,2.13
2024-02-02T16:13:32.746Z,2.40
2024-02-02T16:16:00.510Z,2.08
2024-02-02T16:18:27.561Z,2.60
2024-02-02T16:20:54.630Z,3.40
2024-02-02T16:23:21.771Z,2.95
2024-02-02T16:25:48.572Z,3.30
2024-02-02T16:28:15.406Z,2.50
2024-02-02T16:30:43.247Z,3.22
2024-02-02T16:33:10.391Z,2.85
2024-02-02T16:35:37.264Z,2.78
2024-02-02T16:38:04.163Z,3.03
2024-02-02T16:40:30.857Z,3.38
2024-02-02T16:42:57.563Z,3.17
2024-02-02T16:45:24.352Z,3.50
2024-02-02T16:47:51.103Z,2.55
2024-02-02T16:50:17.949Z,2.03
2024-02-02T16:52:44.679Z,2.70
2024-02-02T16:55:11.406Z,2.20
2024-02-02T16:57:39.542Z,2.60
2024-02-02T17:00:09.595Z,2.40
2024-02-02T17:02:36.877Z,2.40
2024-02-02T17:05:04.303Z,2.45
2024-02-02T17:07:31.543Z,3.25
2024-02-02T17:09:58.458Z,3.35
2024-02-02T17:12:26.426Z,3.20
2024-02-02T17:14:53.198Z,3.00
2024-02-02T17:17:19.988Z,2.83
2024-02-02T17:19:46.759Z,5.75
2024-02-02T17:22:13.525Z,4.03
2024-02-02T17:24:41.427Z,3.17
2024-02-02T17:27:08.260Z,3.47
2024-02-02T17:29:34.960Z,3.50
2024-02-02T17:32:01.627Z,3.65
2024-02-02T17:34:28.384Z,4.00
2024-02-02T17:36:55.199Z,4.50
2024-02-02T17:39:21.959Z,4.35
2024-02-02T17:41:48.672Z,3.83
2024-02-02T17:44:21.929Z,4.15
2024-02-02T17:46:51.281Z,3.50
2024-02-02T17:49:18.459Z,4.28
2024-02-02T17:51:45.461Z,4.03
2024-02-02T17:54:12.346Z,4.63
2024-02-02T17:56:39.149Z,5.50
2024-02-02T17:59:05.919Z,4.78
2024-02-02T18:01:34.809Z,4.35
2024-02-02T18:04:02.048Z,4.30
2024-02-02T18:06:29.063Z,3.55
2024-02-02T18:08:55.863Z,3.65
2024-02-02T18:11:22.520Z,3.92
2024-02-02T18:13:49.170Z,4.35
2024-02-02T18:16:15.914Z,3.90
2024-02-02T18:18:43.073Z,4.78
2024-02-02T18:21:10.737Z,5.93
2024-02-02T18:23:37.464Z,4.55
2024-02-02T18:26:05.073Z,4.00
2024-02-02T18:28:32.358Z,3.85
2024-02-02T18:30:59.624Z,4.00
2024-02-02T18:33:26.459Z,3.63
2024-02-02T18:35:53.279Z,3.47
2024-02-02T18:38:19.974Z,3.65
2024-02-02T18:40:50.490Z,4.13
2024-02-02T18:43:18.099Z,3.13
2024-02-02T18:45:45.029Z,3.00
2024-02-02T18:48:12.055Z,3.20
2024-02-02T18:50:38.842Z,4.07
2024-02-02T18:53:05.655Z,3.67
2024-02-02T18:55:32.404Z,4.47
2024-02-02T18:57:59.061Z,3.83
2024-02-02T19:00:25.856Z,3.85
2024-02-02T19:02:52.717Z,3.45
2024-02-02T19:05:22.293Z,3.63
2024-02-02T19:07:49.037Z,4.05
2024-02-02T19:10:17.810Z,4.28
2024-02-02T19:12:44.661Z,3.80
2024-02-02T19:15:11.451Z,3.60
2024-02-02T19:17:38.209Z,3.60
2024-02-02T19:20:05.877Z,3.50
2024-02-02T19:22:32.675Z,4.18
2024-02-02T19:24:59.684Z,4.05
2024-02-02T19:27:26.621Z,3.50
2024-02-02T19:29:53.467Z,4.22
2024-02-02T19:32:20.735Z,4.47
2024-02-02T19:34:47.686Z,4.28
2024-02-02T19:37:14.580Z,3.90
2024-02-02T19:39:41.493Z,3.88
2024-02-02T19:42:08.447Z,4.75
2024-02-02T19:44:35.175Z,4.35
2024-02-02T19:47:01.901Z,3.88
2024-02-02T19:49:28.749Z,5.03
2024-02-02T19:51:55.548Z,4.57
2024-02-02T19:54:22.616Z,4.78
2024-02-02T19:56:49.352Z,4.70
2024-02-02T19:59:16.180Z,4.70
2024-02-02T20:01:47.739Z,4.60
2024-02-02T20:04:15.654Z,4.82
2024-02-02T20:06:42.854Z,5.90
2024-02-02T20:09:10.340Z,5.18
2024-02-02T20:11:37.862Z,5.10
2024-02-02T20:14:04.539Z,5.28
2024-02-02T20:16:31.370Z,4.80
2024-02-02T20:18:58.249Z,6.18
2024-02-02T20:21:27.296Z,6.40
2024-02-02T20:23:55.549Z,5.15
2024-02-02T20:26:23.667Z,5.50
2024-02-02T20:28:54.325Z,5.72
2024-02-02T20:31:21.657Z,6.07
2024-02-02T20:33:52.346Z,6.50
2024-02-02T20:36:21.107Z,6.63
2024-02-02T20:38:47.924Z,5.40
2024-02-02T20:41:15.044Z,6.07
2024-02-02T20:43:42.110Z,5.40
2024-02-02T20:46:13.279Z,5.28
2024-02-02T20:48:40.790Z,5.85
2024-02-02T20:51:07.672Z,5.85
2024-02-02T20:53:34.359Z,6.00
2024-02-02T20:56:01.297Z,5.38
2024-02-02T20:58:27.990Z,6.50
2024-02-02T21:00:54.893Z,6.25
2024-02-02T21:03:24.340Z,5.70
2024-02-02T21:05:52.180Z,6.40
2024-02-02T21:08:18.945Z,6.05
2024-02-02T21:10:45.694Z,5.80
2024-02-02T21:13:12.571Z,6.78
2024-02-02T21:15:39.370Z,6.05
2024-02-02T21:18:08.884Z,6.03
2024-02-02T21:20:43.537Z,6.18
2024-02-02T21:23:11.088Z,6.57
2024-02-02T21:25:40.851Z,6.63
2024-02-02T21:28:07.615Z,6.07
2024-02-02T21:30:35.259Z,6.00
2024-02-02T21:33:02.015Z,7.13
2024-02-02T21:35:28.762Z,6.18
2024-02-02T21:37:55.469Z,7.22
2024-02-02T21:40:22.240Z,6.57
2024-02-02T21:42:49.168Z,6.85
2024-02-02T21:45:15.950Z,7.03
2024-02-02T21:47:42.852Z,6.72
2024-02-02T21:50:11.221Z,7.30
2024-02-02T21:52:42.000Z,6.68
2024-02-02T21:55:09.007Z,6.30
2024-02-02T21:57:35.819Z,7.30
2024-02-02T22:00:05.703Z,7.15
2024-02-02T22:02:32.474Z,7.10
2024-02-02T22:04:59.324Z,7.25
2024-02-02T22:07:26.141Z,7.05
2024-02-02T22:09:52.996Z,7.80
2024-02-02T22:12:19.774Z,7.90
2024-02-02T22:14:46.574Z,7.05
2024-02-02T22:17:13.369Z,7.30
2024-02-02T22:19:41.115Z,7.35
2024-02-02T22:22:08.168Z,7.10
2024-02-02T22:24:41.887Z,6.70
2024-02-02T22:27:09.898Z,7.05
2024-02-02T22:29:36.699Z,7.32
2024-02-02T22:32:04.354Z,7.35
2024-02-02T22:34:31.137Z,6.82
2024-02-02T22:36:58.017Z,7.82
2024-02-02T22:39:24.721Z,8.55
2024-02-02T22:41:51.540Z,7.13
2024-02-02T22:44:22.133Z,7.10
2024-02-02T22:46:50.810Z,7.20
2024-02-02T22:49:17.560Z,8.00
2024-02-02T22:51:46.760Z,7.75
2024-02-02T22:54:14.506Z,8.45
2024-02-02T22:56:42.349Z,8.15
2024-02-02T22:59:09.235Z,7.43
2024-02-02T23:01:37.405Z,8.13
2024-02-02T23:04:04.829Z,8.63
2024-02-02T23:06:31.875Z,8.15
2024-02-02T23:09:00.302Z,7.22
2024-02-02T23:11:27.043Z,8.00
2024-02-02T23:13:54.147Z,8.20
2024-02-02T23:16:21.665Z,8.50
2024-02-02T23:18:48.705Z,8.05
2024-02-02T23:21:15.938Z,7.90
2024-02-02T23:23:43.315Z,8.00
2024-02-02T23:26:13.290Z,8.05
2024-02-02T23:28:40.511Z,8.00
2024-02-02T23:31:07.281Z,7.65
2024-02-02T23:33:34.197Z,7.97
2024-02-02T23:36:01.397Z,8.52
2024-02-02T23:38:29.167Z,8.32
2024-02-02T23:40:56.661Z,7.55
2024-02-02T23:43:24.066Z,8.02
2024-02-02T23:45:51.442Z,8.18
2024-02-02T23:48:18.562Z,7.97
2024-02-02T23:50:46.528Z,7.70
2024-02-02T23:53:13.370Z,7.85
2024-02-02T23:55:40.113Z,7.80
2024-02-02T23:58:07.093Z,7.70
